Time;durP1;ratioP1;P1;durP2;ratioP2;P2;SDS_P1;SDS_P2;PMS_P1;PMS_P2;Temp;Humidity;BMP_temperature;BMP_pressure;BME280_temperature;BME280_humidity;BME280_pressure;Samples;Min_cycle;Max_cycle;Signal;HPM_P1;HPM_P2
2021/04/05 00:00:26;;;;;;;24.35;11.05;;;;;;;8.58;100.00;102322.22;5033772;28;20107;-67
2021/04/05 00:02:53;;;;;;;26.30;11.40;;;;;;;8.60;100.00;102311.13;5033654;28;20091;-67
2021/04/05 00:05:25;;;;;;;26.40;12.60;;;;;;;8.62;100.00;102309.91;5033552;28;20136;-66
2021/04/05 00:07:50;;;;;;;25.17;12.30;;;;;;;8.64;100.00;102301.53;5033694;28;20030;-66
2021/04/05 00:10:23;;;;;;;24.45;13.02;;;;;;;8.64;100.00;102298.81;5033776;28;20051;-66
2021/04/05 00:12:56;;;;;;;31.95;13.23;;;;;;;8.64;100.00;102299.66;5033588;28;20034;-67
2021/04/05 00:15:22;;;;;;;26.70;12.23;;;;;;;8.64;100.00;102301.53;5033432;28;20041;-66
2021/04/05 00:17:48;;;;;;;31.88;12.68;;;;;;;8.64;100.00;102283.31;5033354;28;20079;-67
2021/04/05 00:20:22;;;;;;;34.67;13.20;;;;;;;8.63;100.00;102281.63;5033322;28;20036;-67
2021/04/05 00:22:48;;;;;;;29.52;13.13;;;;;;;8.65;100.00;102284.97;5033407;28;20029;-67
2021/04/05 00:25:13;;;;;;;30.98;13.77;;;;;;;8.68;100.00;102290.06;5033373;28;20035;-67
2021/04/05 00:27:40;;;;;;;26.10;13.00;;;;;;;8.71;100.00;102286.13;5033307;28;20064;-67
2021/04/05 00:30:19;;;;;;;29.27;13.07;;;;;;;8.72;100.00;102285.91;5033249;28;20107;-66
2021/04/05 00:32:46;;;;;;;26.25;13.07;;;;;;;8.76;100.00;102281.75;5033195;28;20033;-67
2021/04/05 00:35:17;;;;;;;27.98;12.95;;;;;;;8.79;100.00;102277.78;5033034;28;20029;-67
2021/04/05 00:37:43;;;;;;;27.92;13.07;;;;;;;8.83;100.00;102275.50;5032995;28;20116;-66
2021/04/05 00:40:12;;;;;;;36.78;15.15;;;;;;;8.85;100.00;102278.88;5032992;28;20061;-66
2021/04/05 00:42:39;;;;;;;24.85;12.98;;;;;;;8.86;100.00;102275.16;5033504;28;20112;-66
2021/04/05 00:45:07;;;;;;;30.20;13.40;;;;;;;8.87;100.00;102276.84;5032660;28;20079;-67
2021/04/05 00:47:38;;;;;;;31.33;12.57;;;;;;;8.89;100.00;102266.56;5032851;28;20104;-68
2021/04/05 00:50:17;;;;;;;29.38;13.68;;;;;;;8.93;100.00;102265.13;5032840;28;20373;-67
2021/04/05 00:52:43;;;;;;;27.92;13.10;;;;;;;8.94;100.00;102261.38;5032745;28;20040;-66
2021/04/05 00:55:11;;;;;;;24.00;12.25;;;;;;;8.96;100.00;102254.69;5032026;28;20060;-66
2021/04/05 00:57:37;;;;;;;26.00;11.77;;;;;;;8.97;100.00;102250.06;5032918;28;20183;-67
2021/04/05 01:00:16;;;;;;;23.02;12.35;;;;;;;8.98;100.00;102241.69;5032852;28;20049;-66
2021/04/05 01:02:42;;;;;;;32.33;13.15;;;;;;;9.00;100.00;102247.78;5032763;28;20034;-67
2021/04/05 01:05:10;;;;;;;31.02;12.23;;;;;;;9.00;100.00;102253.25;5032436;28;20045;-67
2021/04/05 01:07:36;;;;;;;22.27;11.52;;;;;;;9.01;100.00;102251.34;5032992;28;20030;-67
2021/04/05 01:10:06;;;;;;;25.25;10.68;;;;;;;9.02;100.00;102250.31;5032449;28;20075;-66
2021/04/05 01:12:33;;;;;;;23.70;10.82;;;;;;;9.02;100.00;102247.59;5032519;28;20034;-66
2021/04/05 01:14:58;;;;;;;29.30;11.77;;;;;;;9.04;100.00;102240.09;5032425;28;20431;-67
2021/04/05 01:17:24;;;;;;;18.27;10.50;;;;;;;9.04;100.00;102240.09;5032340;28;20085;-67
2021/04/05 01:19:49;;;;;;;23.83;9.70;;;;;;;9.05;100.00;102231.72;5032220;28;20110;-66
2021/04/05 01:22:15;;;;;;;23.92;10.25;;;;;;;9.06;100.00;102225.22;5032366;28;20044;-67
2021/04/05 01:24:42;;;;;;;28.27;10.45;;;;;;;9.07;100.00;102217.88;5032341;28;20095;-66
2021/04/05 01:27:07;;;;;;;25.65;10.38;;;;;;;9.08;100.00;102214.13;5032131;28;20029;-67
2021/04/05 01:29:37;;;;;;;20.02;9.77;;;;;;;9.09;100.00;102210.34;5032283;28;20037;-67
2021/04/05 01:32:03;;;;;;;20.23;9.50;;;;;;;9.09;100.00;102199.44;5032553;28;20124;-67
2021/04/05 01:34:28;;;;;;;28.45;9.55;;;;;;;9.10;100.00;102200.28;5031828;28;20118;-67
2021/04/05 01:36:59;;;;;;;21.08;9.18;;;;;;;9.10;100.00;102194.84;5031910;28;20084;-67
2021/04/05 01:39:25;;;;;;;24.60;10.63;;;;;;;9.11;100.00;102191.91;5031920;28;20468;-67
2021/04/05 01:41:51;;;;;;;24.67;9.68;;;;;;;9.10;100.00;102179.31;5031927;28;20670;-67
2021/04/05 01:44:17;;;;;;;20.38;8.75;;;;;;;9.10;100.00;102173.88;5031618;28;20049;-67
2021/04/05 01:46:43;;;;;;;19.73;8.57;;;;;;;9.11;100.00;102170.09;5031939;28;20029;-67
2021/04/05 01:49:09;;;;;;;21.48;8.95;;;;;;;9.12;100.00;102171.78;5031937;28;20068;-67
2021/04/05 01:51:35;;;;;;;18.33;7.80;;;;;;;9.10;100.00;102165.69;5031837;28;20061;-68
2021/04/05 01:54:00;;;;;;;26.13;8.90;;;;;;;9.09;100.00;102166.72;5031762;28;20090;-67
2021/04/05 01:56:26;;;;;;;16.55;8.23;;;;;;;9.11;100.00;102159.19;5032074;28;20052;-66
2021/04/05 01:58:54;;;;;;;23.05;8.13;;;;;;;9.10;100.00;102160.25;5032032;28;20045;-67
2021/04/05 02:01:23;;;;;;;21.65;7.57;;;;;;;9.10;100.00;102156.66;5031719;28;20442;-67
2021/04/05 02:03:51;;;;;;;18.30;7.88;;;;;;;9.12;100.00;102154.59;5031651;28;20052;-66
2021/04/05 02:06:24;;;;;;;20.35;8.32;;;;;;;9.11;100.00;102152.91;5030898;28;20124;-67
2021/04/05 02:08:50;;;;;;;24.75;7.90;;;;;;;9.10;100.00;102146.59;5031651;28;20079;-67
2021/04/05 02:11:18;;;;;;;25.60;7.93;;;;;;;9.09;100.00;102139.47;5031653;28;20060;-67
2021/04/05 02:13:45;;;;;;;22.38;7.72;;;;;;;9.09;100.00;102142.19;5031510;28;20037;-67
2021/04/05 02:16:15;;;;;;;19.38;7.63;;;;;;;9.09;100.00;102139.47;5031552;28;20068;-66
2021/04/05 02:18:42;;;;;;;17.05;7.90;;;;;;;9.08;100.00;102143.25;5031515;28;20061;-67
2021/04/05 02:21:18;;;;;;;21.38;7.60;;;;;;;9.07;100.00;102136.94;5031564;28;20037;-67
2021/04/05 02:23:47;;;;;;;20.70;7.55;;;;;;;9.06;100.00;102139.88;5031548;28;20108;-67
2021/04/05 02:26:17;;;;;;;15.32;7.32;;;;;;;9.06;100.00;102120.81;5031462;28;20116;-67
2021/04/05 02:28:47;;;;;;;16.00;6.30;;;;;;;9.07;100.00;102134.22;5029961;28;20084;-67
2021/04/05 02:31:16;;;;;;;24.80;7.05;;;;;;;9.09;100.00;102134.03;5031339;28;20484;-67
2021/04/05 02:33:44;;;;;;;17.60;6.97;;;;;;;9.10;100.00;102122.06;5031059;28;20132;-67
2021/04/05 02:36:14;;;;;;;17.38;5.90;;;;;;;9.12;100.00;102098.19;5031241;28;20045;-67
2021/04/05 02:38:44;;;;;;;13.38;5.35;;;;;;;9.11;100.00;102104.69;5031076;28;20132;-66
2021/04/05 02:41:12;;;;;;;21.70;6.68;;;;;;;9.10;100.00;102100.28;5031104;28;20463;-67
2021/04/05 02:43:38;;;;;;;19.48;6.38;;;;;;;9.10;100.00;102096.72;5030703;28;20426;-67
2021/04/05 02:46:06;;;;;;;19.08;5.40;;;;;;;9.07;100.00;102098.78;5030846;28;20575;-67
2021/04/05 02:48:35;;;;;;;19.55;6.07;;;;;;;9.06;100.00;102088.09;5030842;28;20060;-67
2021/04/05 02:51:03;;;;;;;19.08;6.38;;;;;;;9.03;100.00;102074.88;5031068;28;20099;-67
2021/04/05 02:53:30;;;;;;;21.75;6.72;;;;;;;9.02;100.00;102075.91;5030752;28;20476;-67
2021/04/05 02:56:00;;;;;;;13.00;4.90;;;;;;;9.00;100.00;102078.81;5030914;28;20480;-67
2021/04/05 02:58:26;;;;;;;17.98;6.20;;;;;;;8.98;100.00;102067.28;5030684;28;20099;-67
2021/04/05 03:00:52;;;;;;;16.20;6.85;;;;;;;8.97;100.00;102070.22;5030814;28;20038;-67
2021/04/05 03:03:18;;;;;;;20.63;6.70;;;;;;;8.97;100.00;102075.66;5030621;28;20045;-67
2021/04/05 03:05:44;;;;;;;18.60;6.18;;;;;;;8.96;100.00;102063.09;5030756;28;20045;-67
2021/04/05 03:08:10;;;;;;;12.45;5.15;;;;;;;8.94;100.00;102070.63;5030781;28;20148;-66
2021/04/05 03:10:36;;;;;;;21.85;6.30;;;;;;;8.94;100.00;102065.19;5030732;28;20392;-67
2021/04/05 03:13:03;;;;;;;15.07;6.05;;;;;;;8.93;100.00;102060.78;5030730;28;20048;-67
2021/04/05 03:15:29;;;;;;;16.75;6.15;;;;;;;8.91;100.00;102060.97;5030505;28;20034;-67
2021/04/05 03:17:59;;;;;;;19.63;6.32;;;;;;;8.92;100.00;102056.38;5032025;28;20044;-66
2021/04/05 03:20:29;;;;;;;20.00;6.80;;;;;;;8.93;100.00;102069.78;5033315;28;20037;-67
2021/04/05 03:22:59;;;;;;;23.02;6.82;;;;;;;8.94;100.00;102055.13;5034545;28;20035;-67
2021/04/05 03:25:26;;;;;;;18.55;5.65;;;;;;;8.96;100.00;102044.00;5033021;28;20041;-67
2021/04/05 03:27:52;;;;;;;15.70;5.82;;;;;;;8.99;100.00;102051.78;5034501;28;20041;-66
2021/04/05 03:30:31;;;;;;;18.63;5.57;;;;;;;8.98;100.00;102050.09;5034334;28;20037;-67
2021/04/05 03:33:04;;;;;;;20.92;6.97;;;;;;;8.98;100.00;102061.00;5034270;28;20037;-67
2021/04/05 03:35:36;;;;;;;12.40;5.38;;;;;;;8.98;100.00;102055.53;5032853;28;20152;-67
2021/04/05 03:38:03;;;;;;;13.55;5.80;;;;;;;8.99;100.00;102051.78;5034177;28;20061;-67
2021/04/05 03:40:30;;;;;;;22.98;6.70;;;;;;;9.00;100.00;102067.09;5034277;28;20041;-67
2021/04/05 03:43:06;;;;;;;18.05;6.53;;;;;;;9.01;100.00;102077.78;5034116;28;20037;-66
2021/04/05 03:45:45;;;;;;;17.98;6.22;;;;;;;9.03;100.00;102073.00;5033895;28;20135;-66
2021/04/05 03:48:20;;;;;;;18.20;6.07;;;;;;;9.05;100.00;102080.97;5034056;28;20033;-67
2021/04/05 03:51:12;;;;;;;16.42;6.35;;;;;;;9.07;100.00;102070.69;5033948;28;20033;-68
2021/04/05 03:53:43;;;;;;;22.92;6.88;;;;;;;9.07;100.00;102076.16;5032605;28;20511;-67
2021/04/05 03:56:16;;;;;;;20.70;6.20;;;;;;;9.08;100.00;102072.38;5034425;28;20113;-67
2021/04/05 03:58:47;;;;;;;21.67;7.00;;;;;;;9.10;100.00;102064.84;5033813;28;20360;-67
2021/04/05 04:01:27;;;;;;;31.10;8.35;;;;;;;9.10;100.00;102064.84;5033928;28;20088;-66
2021/04/05 04:04:08;;;;;;;18.25;7.45;;;;;;;9.11;100.00;102063.78;5033625;28;20029;-66
2021/04/05 04:06:45;;;;;;;16.38;6.63;;;;;;;9.10;100.00;102051.22;5033671;28;20087;-67
2021/04/05 04:09:14;;;;;;;14.15;6.95;;;;;;;9.13;100.00;102048.06;5033716;28;20048;-66
2021/04/05 04:11:44;;;;;;;15.60;6.57;;;;;;;9.13;100.00;102050.81;5032315;28;20103;-67
2021/04/05 04:14:11;;;;;;;19.50;5.85;;;;;;;9.12;100.00;102049.13;5033550;28;20037;-65
2021/04/05 04:16:37;;;;;;;16.27;7.18;;;;;;;9.14;100.00;102060.66;5033496;28;20043;-66
2021/04/05 04:19:06;;;;;;;25.38;7.20;;;;;;;9.13;100.00;102058.97;5033518;28;20037;-66
2021/04/05 04:21:32;;;;;;;27.65;6.40;;;;;;;9.15;100.00;102058.78;5033464;28;20510;-67
2021/04/05 04:23:59;;;;;;;20.58;6.85;;;;;;;9.16;100.00;102066.75;5033215;28;20041;-67
2021/04/05 04:26:25;;;;;;;23.88;7.47;;;;;;;9.17;100.00;102054.78;5033337;28;20037;-67
2021/04/05 04:28:51;;;;;;;20.70;6.45;;;;;;;9.20;100.00;102053.53;5032603;28;20396;-66
2021/04/05 04:31:20;;;;;;;21.15;6.75;;;;;;;9.18;100.00;102051.03;5033041;28;20384;-67
2021/04/05 04:33:48;;;;;;;23.08;7.00;;;;;;;9.20;100.00;102053.53;5033169;28;20037;-67
2021/04/05 04:36:22;;;;;;;22.40;6.97;;;;;;;9.20;100.00;102062.59;5033126;28;20063;-68
2021/04/05 04:38:51;;;;;;;21.45;7.63;;;;;;;9.20;100.00;102057.13;5032924;28;20030;-67
2021/04/05 04:41:24;;;;;;;21.00;6.50;;;;;;;9.21;100.00;102072.44;5033022;28;20029;-67
2021/04/05 04:43:58;;;;;;;18.88;5.93;;;;;;;9.21;100.00;102072.44;5032691;28;20492;-67
2021/04/05 04:46:26;;;;;;;17.80;5.70;;;;;;;9.22;100.00;102076.84;5032953;28;20136;-67
2021/04/05 04:49:00;;;;;;;22.23;6.38;;;;;;;9.23;100.00;102075.81;5031523;28;20041;-68
2021/04/05 04:51:26;;;;;;;24.73;6.50;;;;;;;9.24;100.00;102072.03;5033017;28;20487;-67
2021/04/05 04:53:57;;;;;;;20.70;6.35;;;;;;;9.25;100.00;102079.16;5032759;28;20048;-67
2021/04/05 04:56:23;;;;;;;20.55;6.53;;;;;;;9.27;100.00;102078.97;5032751;28;20044;-67
2021/04/05 04:58:49;;;;;;;24.73;6.60;;;;;;;9.26;100.00;102072.66;5032645;28;20089;-67
2021/04/05 05:01:16;;;;;;;13.07;5.78;;;;;;;9.27;100.00;102066.19;5032792;28;20100;-67
2021/04/05 05:03:56;;;;;;;19.63;5.40;;;;;;;9.26;100.00;102053.59;5032590;28;20041;-67
2021/04/05 05:06:25;;;;;;;18.73;5.93;;;;;;;9.26;100.00;102050.88;5032846;28;20395;-67
2021/04/05 05:08:51;;;;;;;16.65;5.15;;;;;;;9.24;100.00;102044.78;5032518;28;20423;-67
2021/04/05 05:11:18;;;;;;;17.30;5.72;;;;;;;9.19;100.00;102047.25;5032403;28;20061;-67
2021/04/05 05:13:43;;;;;;;15.23;5.05;;;;;;;9.20;100.00;102048.09;5032360;28;20494;-68
2021/04/05 05:16:10;;;;;;;18.05;6.18;;;;;;;9.16;100.00;102046.81;5032397;28;20041;-67
2021/04/05 05:18:36;;;;;;;15.07;5.45;;;;;;;9.13;100.00;102058.97;5032313;28;20098;-67
2021/04/05 05:21:25;;;;;;;15.73;5.18;;;;;;;9.11;100.00;102061.06;5032317;28;20482;-67
2021/04/05 05:23:56;;;;;;;17.35;5.35;;;;;;;9.10;100.00;102070.28;5032226;28;20043;-66
2021/04/05 05:26:23;;;;;;;15.93;5.47;;;;;;;9.09;100.00;102074.06;5032196;28;20454;-67
2021/04/05 05:28:53;;;;;;;18.25;5.43;;;;;;;9.07;100.00;102076.16;5032139;28;20033;-66
2021/04/05 05:31:19;;;;;;;17.25;4.40;;;;;;;9.07;100.00;102054.34;5032120;28;20439;-67
2021/04/05 05:33:45;;;;;;;12.52;4.43;;;;;;;9.06;100.00;102058.13;5032082;28;20555;-67
2021/04/05 05:36:11;;;;;;;17.10;5.18;;;;;;;9.08;100.00;102047.84;5032008;28;20045;-66
2021/04/05 05:38:37;;;;;;;13.88;4.60;;;;;;;9.08;100.00;102039.69;5031927;28;20041;-67
2021/04/05 05:41:12;;;;;;;15.05;5.28;;;;;;;9.06;100.00;102036.31;5031857;28;20045;-67
2021/04/05 05:43:56;;;;;;;14.52;4.25;;;;;;;9.05;100.00;102049.09;5032044;28;20065;-67
2021/04/05 05:46:31;;;;;;;14.93;5.65;;;;;;;9.04;100.00;102060.22;5031661;28;20437;-67
2021/04/05 05:49:11;;;;;;;17.48;5.03;;;;;;;9.03;100.00;102061.25;5031756;28;20037;-67
2021/04/05 05:51:53;;;;;;;12.65;4.05;;;;;;;9.02;100.00;102052.25;5031778;28;20059;-67
2021/04/05 05:54:38;;;;;;;13.82;4.07;;;;;;;9.01;100.00;102050.53;5031674;28;20033;-67
2021/04/05 05:57:13;;;;;;;11.73;3.88;;;;;;;9.00;100.00;102053.47;5031570;28;20128;-66
2021/04/05 05:59:47;;;;;;;13.13;4.20;;;;;;;8.99;100.00;102040.88;5031599;28;20112;-67
2021/04/05 06:02:47;;;;;;;13.00;3.25;;;;;;;8.98;100.00;102056.38;5031546;28;20510;-67
2021/04/05 06:05:32;;;;;;;13.35;3.42;;;;;;;8.99;100.00;102063.50;5031407;28;20037;-67
2021/04/05 06:08:19;;;;;;;11.97;3.10;;;;;;;9.00;100.00;102057.03;5031813;28;20025;-66
2021/04/05 06:11:09;;;;;;;12.27;3.40;;;;;;;9.02;100.00;102063.13;5031467;28;20271;-67
2021/04/05 06:13:54;;;;;;;9.60;3.08;;;;;;;9.04;100.00;102060.22;5031393;28;20037;-67
2021/04/05 06:16:31;;;;;;;12.93;3.05;;;;;;;9.06;100.00;102071.75;5030003;28;20035;-67
2021/04/05 06:18:59;;;;;;;14.25;3.38;;;;;;;9.07;100.00;102066.09;5031152;28;20033;-68
2021/04/05 06:21:40;;;;;;;12.65;2.80;;;;;;;9.09;100.00;102068.63;5031273;28;20405;-67
2021/04/05 06:24:15;;;;;;;11.00;2.50;;;;;;;9.12;100.00;102068.19;5031044;28;20037;-67
2021/04/05 06:26:59;;;;;;;7.85;2.75;;;;;;;9.14;100.00;102073.44;5031146;28;20034;-67
2021/04/05 06:29:35;;;;;;;11.77;2.72;;;;;;;9.14;100.00;102060.66;5031265;28;20056;-66
2021/04/05 06:32:23;;;;;;;8.40;2.70;;;;;;;9.16;100.00;102080.38;5031514;28;20499;-67
2021/04/05 06:35:16;;;;;;;14.73;3.30;;;;;;;9.18;100.00;102078.28;5030912;28;20083;-68
2021/04/05 06:37:45;;;;;;;12.43;2.88;;;;;;;9.20;100.00;102081.69;5030987;28;20032;-67
2021/04/05 06:40:16;;;;;;;10.98;2.78;;;;;;;9.22;100.00;102068.69;5031011;28;20045;-67
2021/04/05 06:42:58;;;;;;;11.13;2.50;;;;;;;9.26;100.00;102075.41;5030990;28;20047;-67
2021/04/05 06:45:39;;;;;;;11.55;2.75;;;;;;;9.30;100.00;102084.84;5030739;28;20052;-67
2021/04/05 06:48:32;;;;;;;9.07;2.65;;;;;;;9.36;100.00;102083.19;5030850;28;20121;-68
2021/04/05 06:51:16;;;;;;;9.20;2.97;;;;;;;9.42;100.00;102081.53;5029594;28;20128;-66
2021/04/05 06:54:10;;;;;;;13.18;2.72;;;;;;;9.47;100.00;102087.22;5030163;28;20038;-68
2021/04/05 06:56:57;;;;;;;8.40;2.58;;;;;;;9.53;100.00;102097.31;5030834;28;20524;-67
2021/04/05 06:59:31;;;;;;;11.60;3.42;;;;;;;9.57;100.00;102087.69;5030735;28;20053;-67
2021/04/05 07:02:35;;;;;;;11.60;2.72;;;;;;;9.61;100.00;102083.50;5029489;28;20492;-67
2021/04/05 07:05:18;;;;;;;10.65;3.20;;;;;;;9.67;100.00;102090.84;5030662;28;20033;-67
2021/04/05 07:08:05;;;;;;;14.25;2.22;;;;;;;9.70;100.00;102093.16;5030693;28;20037;-67
2021/04/05 07:10:40;;;;;;;8.38;2.20;;;;;;;9.76;100.00;102105.16;5030741;28;20510;-67
2021/04/05 07:13:18;;;;;;;;;;;;;;;9.80;100.00;102092.78;5031171;28;20076;-67
2021/04/05 07:15:56;;;;;;;9.43;2.10;;;;;;;9.84;100.00;102088.59;5030646;28;19924;-67
2021/04/05 07:18:51;;;;;;;14.63;2.83;;;;;;;9.86;100.00;102070.94;5030570;28;20033;-67
2021/04/05 07:21:42;;;;;;;7.22;2.10;;;;;;;9.94;100.00;102089.88;5030673;28;20045;-67
2021/04/05 07:24:29;;;;;;;6.88;1.80;;;;;;;9.96;100.00;102087.78;5030460;28;20117;-66
2021/04/05 07:27:11;;;;;;;5.93;1.67;;;;;;;9.95;100.00;102085.25;5030496;28;20045;-67
2021/04/05 07:29:49;;;;;;;13.80;2.33;;;;;;;9.92;100.00;102108.34;5030607;28;20033;-67
2021/04/05 07:32:36;;;;;;;8.65;2.50;;;;;;;9.86;100.00;102119.22;5030736;28;20081;-68
2021/04/05 07:35:18;;;;;;;18.33;2.78;;;;;;;9.65;100.00;102117.50;5036564;28;20468;-66
2021/04/05 07:38:18;;;;;;;20.35;4.50;;;;;;;9.39;100.00;102133.78;5049816;28;20033;-68
2021/04/05 07:41:07;;;;;;;22.92;4.45;;;;;;;9.31;100.00;102132.03;5049916;28;20124;-69
2021/04/05 07:43:52;;;;;;;23.23;5.30;;;;;;;9.28;100.00;102138.75;5049702;28;20076;-68
2021/04/05 07:46:22;;;;;;;25.75;6.20;;;;;;;9.31;100.00;102143.78;5054604;28;20049;-66
2021/04/05 07:49:07;;;;;;;21.70;5.30;;;;;;;9.36;100.00;102154.91;5029959;28;20045;-69
2021/04/05 07:51:44;;;;;;;23.83;6.15;;;;;;;9.40;100.00;102149.09;5030183;28;20045;-66
2021/04/05 07:54:11;;;;;;;19.33;5.07;;;;;;;9.43;100.00;102154.13;5030131;28;20127;-67
2021/04/05 07:57:07;;;;;;;22.23;5.93;;;;;;;9.42;100.00;102145.09;5048569;28;20041;-69
2021/04/05 07:59:51;;;;;;;22.27;5.63;;;;;;;9.45;100.00;102160.22;5049758;28;20045;-69
2021/04/05 08:02:38;;;;;;;24.45;5.72;;;;;;;9.44;100.00;102155.81;5049439;28;20033;-69
2021/04/05 08:05:26;;;;;;;26.58;5.55;;;;;;;9.46;100.00;102154.56;5050150;28;20029;-68
2021/04/05 08:08:21;;;;;;;26.23;4.88;;;;;;;9.52;100.00;102159.19;5053061;28;20162;-67
2021/04/05 08:10:55;;;;;;;27.30;6.18;;;;;;;9.54;100.00;102146.19;5033557;28;20068;-68
2021/04/05 08:13:23;;;;;;;34.72;6.28;;;;;;;9.61;100.00;102151.69;5047623;28;20400;-68
2021/04/05 08:16:08;;;;;;;29.58;6.13;;;;;;;9.74;100.00;102159.09;5052686;28;20036;-72
2021/04/05 08:19:23;;;;;;;29.58;6.78;;;;;;;9.83;100.00;102158.69;5052651;28;20498;-68
2021/04/05 08:21:58;;;;;;;26.65;6.90;;;;;;;9.90;100.00;102159.56;5053373;28;20049;-70
2021/04/05 08:24:28;;;;;;;;;;;;;;;9.90;100.00;102165.03;5053222;28;20033;-69
2021/04/05 08:26:54;;;;;;;23.42;6.07;;;;;;;9.95;100.00;102181.63;5051915;28;19917;-66
2021/04/05 08:29:57;;;;;;;17.55;4.53;;;;;;;10.03;100.00;102164.19;5052920;28;20028;-69
2021/04/05 08:32:30;;;;;;;25.20;6.40;;;;;;;10.08;100.00;102155.41;5055809;28;20391;-68
2021/04/05 08:35:13;;;;;;;22.67;5.65;;;;;;;10.15;100.00;102161.72;5052599;28;20029;-68
2021/04/05 08:38:00;;;;;;;24.58;6.43;;;;;;;10.13;100.00;102159.19;5052943;28;20139;-75
2021/04/05 08:40:45;;;;;;;20.90;5.72;;;;;;;10.12;100.00;102167.59;5052991;28;20124;-67
2021/04/05 08:43:11;;;;;;;25.50;6.40;;;;;;;10.13;100.00;102163.81;5052499;28;20061;-75
2021/04/05 08:45:48;;;;;;;35.60;7.68;;;;;;;10.20;100.00;102157.31;5052250;28;20041;-74
2021/04/05 08:48:19;;;;;;;17.58;5.32;;;;;;;10.25;100.00;102162.19;5052878;28;20076;-73
2021/04/05 08:50:50;;;;;;;20.92;6.10;;;;;;;10.41;100.00;102174.59;5052651;28;20055;-71
2021/04/05 08:53:18;;;;;;;27.55;6.68;;;;;;;10.44;100.00;102176.94;5052341;28;20033;-77
2021/04/05 08:55:45;;;;;;;25.70;6.25;;;;;;;10.44;100.00;102182.38;5052292;28;20572;-67
2021/04/05 08:58:27;;;;;;;21.70;5.95;;;;;;;10.45;100.00;102184.06;5052427;28;20471;-66
2021/04/05 09:00:58;;;;;;;16.70;5.57;;;;;;;10.36;100.00;102186.16;5052659;28;20131;-74
2021/04/05 09:03:29;;;;;;;19.92;5.63;;;;;;;10.33;100.00;102189.28;5052572;28;20037;-71
2021/04/05 09:05:56;;;;;;;19.42;6.40;;;;;;;10.25;100.00;102200.44;5050908;28;20506;-71
2021/04/05 09:08:26;;;;;;;17.13;5.18;;;;;;;10.22;100.00;102217.19;5052554;28;20439;-75
2021/04/05 09:10:52;;;;;;;18.80;5.93;;;;;;;10.23;100.00;102210.69;5052559;28;20037;-66
2021/04/05 09:13:26;;;;;;;15.88;5.63;;;;;;;10.29;100.00;102218.06;5051921;28;20471;-71
2021/04/05 09:16:10;;;;;;;23.08;5.40;;;;;;;10.46;100.00;102213.91;5051453;28;20036;-69
2021/04/05 09:19:16;;;;;;;14.23;5.47;;;;;;;10.51;100.00;102222.31;5052128;28;20031;-68
2021/04/05 09:22:19;;;;;;;14.90;4.30;;;;;;;10.65;98.91;102212.25;5051709;28;20196;-75
2021/04/05 09:25:19;;;;;;;15.40;4.60;;;;;;;10.55;96.66;102211.81;5052033;28;20550;-67
2021/04/05 09:28:24;;;;;;;15.57;5.10;;;;;;;10.78;95.17;102211.41;5052152;28;20041;-67
2021/04/05 09:30:59;;;;;;;13.57;4.88;;;;;;;10.73;95.41;102220.22;5051903;28;20470;-77
2021/04/05 09:33:52;;;;;;;10.57;3.90;;;;;;;10.74;98.29;102227.38;5051636;28;20522;-68
2021/04/05 09:36:20;;;;;;;18.10;5.22;;;;;;;10.70;100.00;102230.75;5031793;28;20033;-69
2021/04/05 09:39:34;;;;;;;15.18;5.18;;;;;;;10.74;100.00;102251.13;5031811;28;20065;-67
2021/04/05 09:41:59;;;;;;;13.25;4.57;;;;;;;10.73;100.00;102252.19;5029535;28;20046;-69
2021/04/05 09:44:48;;;;;;;11.43;4.93;;;;;;;10.63;100.00;102263.53;5045262;28;20434;-67
2021/04/05 09:47:34;;;;;;;19.25;4.60;;;;;;;10.71;100.00;102276.16;5066232;28;20045;-64
2021/04/05 09:50:23;;;;;;;12.73;4.03;;;;;;;10.58;100.00;102272.31;5051228;28;20033;-67
2021/04/05 09:53:10;;;;;;;10.35;4.28;;;;;;;10.48;100.00;102271.91;5051160;28;20045;-70
2021/04/05 09:55:44;;;;;;;10.57;3.95;;;;;;;10.50;100.00;102264.34;5050729;28;20029;-67
2021/04/05 09:58:29;;;;;;;14.40;4.40;;;;;;;10.44;100.00;102259.72;5050834;28;20037;-68
2021/04/05 10:01:00;;;;;;;16.20;4.05;;;;;;;10.54;100.00;102265.59;5050906;28;20041;-70
2021/04/05 10:03:28;;;;;;;15.65;3.72;;;;;;;10.48;100.00;102255.50;5050896;28;20037;-68
2021/04/05 10:05:56;;;;;;;17.50;3.90;;;;;;;10.62;100.00;102261.00;5050472;28;20513;-67
2021/04/05 10:08:27;;;;;;;17.10;4.60;;;;;;;10.72;100.00;102250.50;5050957;28;20047;-68
2021/04/05 10:10:55;;;;;;;10.43;3.45;;;;;;;11.01;100.00;102260.19;5050129;28;20080;-67
2021/04/05 10:13:24;;;;;;;14.80;3.75;;;;;;;11.09;100.00;102266.28;5050199;28;20025;-71
2021/04/05 10:15:51;;;;;;;10.48;3.85;;;;;;;11.16;100.00;102271.75;5050086;28;20550;-69
2021/04/05 10:18:18;;;;;;;9.27;3.00;;;;;;;11.04;100.00;102279.75;5050502;28;20037;-67
2021/04/05 10:20:50;;;;;;;10.50;2.67;;;;;;;10.93;99.07;102283.09;5050272;28;20049;-63
2021/04/05 10:23:24;;;;;;;5.50;2.70;;;;;;;10.82;98.43;102294.66;5050508;28;20071;-68
2021/04/05 10:25:59;;;;;;;9.10;2.50;;;;;;;10.78;97.91;102293.41;5050999;28;20033;-65
2021/04/05 10:28:29;;;;;;;8.35;2.30;;;;;;;10.55;88.40;102300.06;5050153;28;20286;-64
2021/04/05 10:31:03;;;;;;;7.07;1.80;;;;;;;10.68;92.90;102298.44;5050652;28;20039;-68
2021/04/05 10:33:36;;;;;;;11.48;2.05;;;;;;;10.72;88.22;102305.16;5050446;28;20047;-66
2021/04/05 10:36:06;;;;;;;5.57;1.60;;;;;;;10.66;85.61;102300.53;5050625;28;20424;-66
2021/04/05 10:38:36;;;;;;;6.00;1.70;;;;;;;10.76;84.52;102293.63;5050146;28;20483;-66
2021/04/05 10:41:05;;;;;;;6.55;1.85;;;;;;;10.96;89.27;102301.84;5049223;28;20430;-68
2021/04/05 10:43:40;;;;;;;9.05;2.22;;;;;;;11.31;86.65;102307.09;5050202;28;20439;-68
2021/04/05 10:46:16;;;;;;;10.10;2.78;;;;;;;11.60;92.36;102290.22;5050377;28;20091;-69
2021/04/05 10:48:46;;;;;;;8.65;2.35;;;;;;;11.90;88.51;102298.81;5050738;28;20562;-68
2021/04/05 10:51:22;;;;;;;7.07;1.65;;;;;;;11.94;80.38;102304.69;5050690;28;20037;-68
2021/04/05 10:53:57;;;;;;;8.27;1.85;;;;;;;12.04;77.01;102303.19;5050662;28;20029;-66
2021/04/05 10:56:25;;;;;;;8.75;1.73;;;;;;;12.15;79.49;102307.16;5050762;28;20032;-67
2021/04/05 10:59:00;;;;;;;6.05;1.65;;;;;;;12.42;72.52;102307.03;5050530;28;20040;-68
2021/04/05 11:01:29;;;;;;;6.88;1.60;;;;;;;12.25;76.62;102291.09;5050413;28;20379;-69
2021/04/05 11:03:58;;;;;;;7.65;1.52;;;;;;;12.05;77.92;102290.34;5050101;28;20041;-68
2021/04/05 11:06:25;;;;;;;10.43;2.13;;;;;;;11.81;78.01;102283.69;5050555;28;20041;-67
2021/04/05 11:08:52;;;;;;;15.73;2.08;;;;;;;11.61;84.74;102289.16;5050470;28;20029;-68
2021/04/05 11:11:23;;;;;;;13.73;2.83;;;;;;;11.50;85.02;102298.03;5050564;28;20036;-67
2021/04/05 11:13:57;;;;;;;10.00;2.15;;;;;;;11.43;93.80;102292.56;5049063;28;20036;-72
2021/04/05 11:16:23;;;;;;;10.43;1.90;;;;;;;11.44;93.90;102290.66;5050068;28;20073;-68
2021/04/05 11:18:51;;;;;;;13.35;2.47;;;;;;;11.65;93.09;102290.44;5050303;28;20075;-67
2021/04/05 11:21:20;;;;;;;8.07;1.80;;;;;;;11.48;84.00;102297.41;5048910;28;20044;-67
2021/04/05 11:23:54;;;;;;;10.18;2.33;;;;;;;11.29;84.79;102299.13;5049884;28;20056;-68
2021/04/05 11:26:30;;;;;;;14.82;2.35;;;;;;;11.04;92.92;102309.81;5050299;28;20072;-67
2021/04/05 11:28:59;;;;;;;15.68;2.38;;;;;;;10.84;97.42;102320.75;5050309;28;20033;-67
2021/04/05 11:31:33;;;;;;;10.18;1.92;;;;;;;10.72;100.00;102311.47;5049988;28;20029;-69
2021/04/05 11:34:00;;;;;;;14.32;2.33;;;;;;;10.68;100.00;102320.28;5049961;28;20491;-70
2021/04/05 11:36:53;;;;;;;9.05;1.70;;;;;;;10.63;100.00;102323.66;5050278;28;20040;-68
2021/04/05 11:39:21;;;;;;;11.30;2.65;;;;;;;10.84;100.00;102330.84;5052471;28;20076;-66
2021/04/05 11:41:52;;;;;;;8.70;2.00;;;;;;;11.31;100.00;102339.94;5053843;28;20040;-68
2021/04/05 11:44:21;;;;;;;8.55;1.63;;;;;;;11.18;100.00;102327.94;5053374;28;20068;-68
2021/04/05 11:46:49;;;;;;;5.53;1.90;;;;;;;11.39;100.00;102320.56;5053874;28;20127;-66